Time;durP1;ratioP1;P1;durP2;ratioP2;P2;SDS_P1;SDS_P2;PMS_P1;PMS_P2;Temp;Humidity;BMP_temperature;BMP_pressure;BME280_temperature;BME280_humidity;BME280_pressure;Samples;Min_cycle;Max_cycle;Signal;HPM_P1;HPM_P2
2021/07/27 00:01:43;;;;;;;19.70;16.67;;;;;;;20.24;75.57;100823.98;1849512;77;21114;-85
2021/07/27 00:04:10;;;;;;;21.15;16.65;;;;;;;20.22;75.63;100824.46;1849676;77;20967;-85
2021/07/27 00:06:37;;;;;;;24.87;17.80;;;;;;;20.18;75.68;100824.95;1849942;77;21730;-85
2021/07/27 00:09:04;;;;;;;20.25;16.77;;;;;;;20.13;75.77;100827.67;1849424;77;20967;-85
2021/07/27 00:11:30;;;;;;;18.62;16.73;;;;;;;20.10;75.81;100827.73;1849868;77;20967;-85
2021/07/27 00:13:57;;;;;;;19.95;17.15;;;;;;;20.07;75.87;100829.09;1849979;77;20958;-85
2021/07/27 00:16:24;;;;;;;18.90;16.42;;;;;;;20.03;76.00;100826.04;1849792;76;21041;-85
2021/07/27 00:18:50;;;;;;;19.20;17.20;;;;;;;19.99;75.99;100826.98;1849895;77;22511;-85
2021/07/27 00:21:20;;;;;;;19.90;16.30;;;;;;;19.95;76.06;100819.89;1849827;77;21021;-85
2021/07/27 00:23:47;;;;;;;22.37;16.10;;;;;;;19.92;76.15;100822.16;1849662;77;21496;-85
2021/07/27 00:26:14;;;;;;;17.92;15.18;;;;;;;19.90;76.23;100818.62;1850347;77;21021;-85
2021/07/27 00:28:41;;;;;;;17.15;15.48;;;;;;;19.86;76.25;100817.33;1849860;77;20955;-85
2021/07/27 00:31:17;;;;;;;19.80;16.35;;;;;;;19.84;76.42;100810.70;1850065;77;21778;-85
2021/07/27 00:33:45;;;;;;;20.45;17.02;;;;;;;19.81;76.43;100819.61;1849553;77;21547;-85
2021/07/27 00:36:12;;;;;;;20.52;15.40;;;;;;;19.78;76.47;100809.41;1850074;77;21452;-85
2021/07/27 00:38:38;;;;;;;18.77;14.78;;;;;;;19.76;76.57;100809.87;1850056;77;21469;-85
2021/07/27 00:41:05;;;;;;;18.48;15.13;;;;;;;19.73;76.64;100812.61;1850451;77;21041;-85
2021/07/27 00:43:32;;;;;;;16.30;14.63;;;;;;;19.70;76.66;100813.48;1849934;77;21709;-85
2021/07/27 00:46:00;;;;;;;17.45;15.20;;;;;;;19.67;76.72;100810.86;1849988;77;21820;-85
2021/07/27 00:48:27;;;;;;;19.98;14.73;;;;;;;19.62;76.75;100804.22;1850291;77;20975;-85
2021/07/27 00:50:54;;;;;;;17.73;15.35;;;;;;;19.57;76.82;100795.38;1850027;77;20967;-85
2021/07/27 00:53:20;;;;;;;17.00;15.35;;;;;;;19.54;76.95;100793.18;1849967;77;20960;-85
2021/07/27 00:55:48;;;;;;;18.82;16.00;;;;;;;19.51;77.04;100788.77;1849854;77;21726;-85
2021/07/27 00:58:15;;;;;;;16.52;14.83;;;;;;;19.50;77.14;100792.79;1850082;77;21444;-85
2021/07/27 01:00:42;;;;;;;19.05;15.58;;;;;;;19.45;77.17;100790.19;1849972;77;20958;-85
2021/07/27 01:03:09;;;;;;;17.05;15.35;;;;;;;19.43;77.25;100783.98;1849991;77;20982;-85
2021/07/27 01:05:36;;;;;;;18.20;16.35;;;;;;;19.42;77.33;100783.53;1850634;77;20970;-85
2021/07/27 01:08:05;;;;;;;21.30;15.53;;;;;;;19.41;77.50;100777.78;1850117;77;21716;-85
2021/07/27 01:10:32;;;;;;;18.00;16.30;;;;;;;19.40;77.51;100771.53;1850034;76;20960;-85
2021/07/27 01:12:59;;;;;;;17.73;15.53;;;;;;;19.40;77.57;100774.66;1850205;77;21029;-85
2021/07/27 01:15:25;;;;;;;18.70;15.70;;;;;;;19.38;77.56;100771.12;1850201;77;20990;-84
2021/07/27 01:17:59;;;;;;;25.57;17.75;;;;;;;19.35;77.64;100762.72;1850251;77;20982;-86
2021/07/27 01:44:02;;;;;;;19.10;16.23;;;;;;;19.18;78.11;100776.23;1849558;76;21551;-85
2021/07/27 01:46:36;;;;;;;18.20;16.40;;;;;;;19.17;78.18;100776.25;1849938;76;21746;-86
2021/07/27 01:49:04;;;;;;;18.00;16.10;;;;;;;19.15;78.24;100780.26;1849894;77;21560;-86
2021/07/27 01:51:42;;;;;;;18.45;16.65;;;;;;;19.15;78.27;100777.59;1849779;77;32864;-86
2021/07/27 01:54:12;;;;;;;18.05;16.10;;;;;;;19.14;78.31;100774.94;1849861;77;20936;-86
2021/07/27 01:56:38;;;;;;;19.15;16.60;;;;;;;19.13;78.33;100782.06;1850074;77;20946;-86
2021/07/27 01:59:04;;;;;;;19.77;17.67;;;;;;;19.11;78.36;100789.20;1850045;77;22548;-86
2021/07/27 02:01:31;;;;;;;18.82;16.82;;;;;;;19.10;78.37;100781.20;1846960;77;20954;-86
2021/07/27 02:03:58;;;;;;;18.98;17.02;;;;;;;19.10;78.45;100782.08;1850073;77;20977;-86
2021/07/27 02:06:25;;;;;;;20.12;17.02;;;;;;;19.11;78.51;100783.86;1849977;77;21527;-86
2021/07/27 02:08:54;;;;;;;18.70;16.25;;;;;;;19.12;78.50;100785.61;1850051;77;20973;-85
2021/07/27 02:11:25;;;;;;;18.82;16.93;;;;;;;19.11;78.54;100789.66;1849986;77;23003;-86
2021/07/27 02:13:50;;;;;;;21.48;17.15;;;;;;;19.12;78.60;100790.95;1849495;76;20989;-86
2021/07/27 02:16:17;;;;;;;21.70;16.82;;;;;;;19.12;78.65;100786.95;1850024;77;20962;-86
2021/07/27 02:18:43;;;;;;;21.73;16.10;;;;;;;19.14;78.74;100789.15;1850238;77;21037;-88
2021/07/27 02:21:10;;;;;;;20.90;16.82;;;;;;;19.19;78.82;100788.66;1850055;77;21002;-88
2021/07/27 02:23:37;;;;;;;20.20;17.90;;;;;;;19.26;78.82;100788.16;1850073;77;21775;-88
2021/07/27 02:26:04;;;;;;;21.50;17.87;;;;;;;19.29;78.71;100789.45;1850120;77;21076;-87
2021/07/27 02:28:33;;;;;;;19.17;17.05;;;;;;;19.33;78.75;100788.97;1849747;77;21099;-88
2021/07/27 02:31:04;;;;;;;19.75;16.12;;;;;;;19.36;78.75;100792.49;1849927;77;21650;-88
2021/07/27 02:33:38;;;;;;;20.40;17.45;;;;;;;19.40;78.66;100792.02;1850031;77;21080;-87
2021/07/27 02:36:05;;;;;;;19.82;17.70;;;;;;;19.40;78.62;100783.55;1849826;77;21839;-87
2021/07/27 02:38:32;;;;;;;25.00;16.80;;;;;;;19.39;78.59;100775.58;1849482;77;21633;-86
2021/07/27 02:41:00;;;;;;;18.00;16.27;;;;;;;19.38;78.52;100777.34;1849960;77;21468;-87
2021/07/27 02:43:29;;;;;;;19.98;16.75;;;;;;;19.38;78.58;100780.47;1849697;77;20963;-87
2021/07/27 02:45:56;;;;;;;20.43;17.40;;;;;;;19.37;78.56;100779.59;1849961;77;20977;-88
2021/07/27 02:48:22;;;;;;;19.65;17.57;;;;;;;19.38;78.64;100785.81;1849891;77;21734;-87
2021/07/27 02:51:01;;;;;;;20.05;16.17;;;;;;;19.38;78.64;100785.81;1849895;77;21030;-88
2021/07/27 02:53:30;;;;;;;20.20;16.17;;;;;;;19.37;78.57;100773.34;1849842;77;21018;-87
2021/07/27 02:55:58;;;;;;;18.48;15.60;;;;;;;19.37;78.58;100779.59;1849761;77;20963;-87
2021/07/27 02:58:29;;;;;;;22.77;16.87;;;;;;;19.37;78.55;100779.59;1849841;77;21014;-87
2021/07/27 03:00:56;;;;;;;20.65;17.35;;;;;;;19.37;78.57;100773.34;1849982;77;21749;-87
2021/07/27 03:03:22;;;;;;;18.42;16.55;;;;;;;19.36;78.51;100771.14;1849963;77;20981;-87
2021/07/27 03:05:54;;;;;;;17.82;15.78;;;;;;;19.36;78.54;100766.27;1849989;77;21021;-87
2021/07/27 03:08:20;;;;;;;20.15;18.07;;;;;;;19.37;78.56;100760.00;1849552;77;21528;-87
2021/07/27 03:10:47;;;;;;;19.02;17.02;;;;;;;19.38;78.49;100763.13;1849834;77;20986;-87
2021/07/27 03:13:13;;;;;;;18.85;16.85;;;;;;;19.39;78.55;100767.11;1849904;77;21695;-87
2021/07/27 03:15:40;;;;;;;19.05;16.42;;;;;;;19.42;78.62;100768.39;1849781;77;21100;-87
2021/07/27 03:18:07;;;;;;;20.05;18.05;;;;;;;19.46;78.58;100761.70;1849900;77;21487;-87
2021/07/27 03:20:34;;;;;;;18.00;15.83;;;;;;;19.50;78.56;100758.99;1850017;77;20972;-87
2021/07/27 03:23:01;;;;;;;18.60;15.28;;;;;;;19.55;78.47;100763.80;1849869;77;21049;-87
2021/07/27 03:25:28;;;;;;;18.25;15.78;;;;;;;19.58;78.32;100760.23;1849856;77;21713;-87
2021/07/27 03:27:54;;;;;;;16.62;15.13;;;;;;;19.60;78.25;100756.63;1849927;77;20947;-87
2021/07/27 03:30:21;;;;;;;17.15;15.45;;;;;;;19.65;78.24;100755.69;1849869;77;20963;-88
2021/07/27 03:32:49;;;;;;;21.97;15.28;;;;;;;19.69;78.11;100762.32;1849823;77;21168;-87
2021/07/27 03:35:18;;;;;;;16.32;14.80;;;;;;;19.74;78.13;100764.95;1849684;77;20963;-87
2021/07/27 03:37:44;;;;;;;17.10;15.30;;;;;;;19.81;78.12;100767.98;1849960;77;21740;-87
2021/07/27 03:40:13;;;;;;;17.02;15.38;;;;;;;19.90;78.03;100766.53;1849546;77;20951;-87
2021/07/27 03:42:39;;;;;;;17.32;15.35;;;;;;;19.97;77.78;100755.30;1849816;77;21017;-86
2021/07/27 03:45:07;;;;;;;19.62;16.32;;;;;;;20.03;77.69;100756.99;1849690;77;20951;-87
2021/07/27 03:47:34;;;;;;;19.12;14.60;;;;;;;20.10;77.71;100760.02;1849811;77;20997;-87
2021/07/27 03:50:00;;;;;;;15.68;14.10;;;;;;;20.20;77.52;100759.00;1849757;77;21735;-87
2021/07/27 03:52:27;;;;;;;17.65;14.47;;;;;;;20.28;77.43;100757.08;1849760;76;21504;-87
2021/07/27 03:54:54;;;;;;;16.15;14.50;;;;;;;20.35;77.30;100756.09;1850140;77;21037;-87
2021/07/27 03:57:21;;;;;;;18.27;15.03;;;;;;;20.49;77.26;100757.66;1849623;77;21176;-87
2021/07/27 03:59:47;;;;;;;18.98;14.53;;;;;;;20.61;77.13;100754.84;1849767;77;21017;-87
2021/07/27 04:02:14;;;;;;;17.55;15.03;;;;;;;20.77;76.99;100759.00;1850508;77;21719;-87
2021/07/27 04:04:42;;;;;;;19.25;14.50;;;;;;;20.97;76.88;100750.63;1848195;76;20963;-87
2021/07/27 04:07:08;;;;;;;18.12;14.30;;;;;;;21.20;76.68;100757.36;1820932;76;20928;-87
2021/07/27 04:09:35;;;;;;;19.12;14.18;;;;;;;21.55;76.69;100760.72;1846745;77;20984;-87
2021/07/27 04:12:02;;;;;;;16.07;14.38;;;;;;;21.94;76.16;100752.77;1817531;76;21164;-86
2021/07/27 04:14:28;;;;;;;18.30;14.30;;;;;;;22.25;75.28;100747.16;1850561;77;21373;-86
2021/07/27 04:16:56;;;;;;;16.48;13.50;;;;;;;22.48;75.09;100745.30;1826437;76;20966;-87
2021/07/27 04:19:23;;;;;;;14.43;12.98;;;;;;;22.84;74.79;100744.84;1808602;77;21019;-85
2021/07/27 04:21:50;;;;;;;15.32;13.83;;;;;;;23.14;74.05;100743.62;1815701;76;20998;-87
2021/07/27 04:24:19;;;;;;;18.75;13.78;;;;;;;23.48;73.79;100747.61;1847458;77;20999;-88
2021/07/27 04:26:47;;;;;;;17.12;13.62;;;;;;;23.91;73.23;100758.92;1812934;76;21737;-87
2021/07/27 04:29:17;;;;;;;13.95;12.53;;;;;;;23.96;71.83;100735.94;1829063;77;21058;-90
2021/07/27 04:31:50;;;;;;;15.03;13.05;;;;;;;24.05;71.35;100749.97;1806683;79;21053;-87
2021/07/27 04:34:18;;;;;;;15.03;12.95;;;;;;;24.27;71.26;100742.59;1806355;79;21177;-86
2021/07/27 04:36:45;;;;;;;22.02;13.22;;;;;;;24.56;70.94;100751.08;1836624;77;21041;-90
2021/07/27 04:39:23;;;;;;;20.57;14.45;;;;;;;25.21;70.95;100751.09;1822094;77;21750;-92
2021/07/27 04:41:50;;;;;;;17.25;12.50;;;;;;;26.07;70.28;100749.75;1761763;78;21053;-88
2021/07/27 04:44:17;;;;;;;15.48;12.65;;;;;;;26.86;69.01;100739.33;1815284;77;21104;-90
2021/07/27 04:46:44;;;;;;;14.33;12.93;;;;;;;27.45;67.56;100743.05;1815331;76;21008;-86
2021/07/27 04:49:14;;;;;;;14.20;12.88;;;;;;;27.94;66.57;100753.45;1832881;77;21026;-90
2021/07/27 04:51:41;;;;;;;18.40;13.88;;;;;;;28.33;65.21;100748.42;1849955;77;21941;-86
2021/07/27 04:54:14;;;;;;;18.70;13.15;;;;;;;28.55;64.22;100744.21;1846827;77;21388;-85
2021/07/27 04:56:36;;;;;;;18.73;13.35;;;;;;;28.88;63.54;100742.95;1846323;77;20997;-90
2021/07/27 04:59:03;;;;;;;18.42;12.85;;;;;;;29.30;63.10;100744.89;1847331;77;21033;-92
2021/07/27 05:01:30;;;;;;;18.20;13.00;;;;;;;29.81;62.03;100743.03;1847360;77;20994;-86
2021/07/27 05:03:56;;;;;;;18.15;13.10;;;;;;;30.27;61.10;100742.75;1847311;77;21691;-89
2021/07/27 05:06:23;;;;;;;19.23;12.73;;;;;;;30.74;60.11;100748.63;1847357;77;20946;-89
2021/07/27 05:08:50;;;;;;;13.85;12.45;;;;;;;31.13;59.37;100745.86;1847379;77;21543;-87
2021/07/27 05:11:16;;;;;;;14.60;12.40;;;;;;;31.36;58.06;100752.59;1847193;77;20975;-87
2021/07/27 05:13:43;;;;;;;14.38;12.85;;;;;;;31.24;56.59;100742.00;1846622;77;21014;-87
2021/07/27 05:16:18;;;;;;;17.77;12.93;;;;;;;30.54;55.71;100745.25;1846977;77;21728;-87
2021/07/27 05:18:43;;;;;;;13.98;12.53;;;;;;;29.74;55.93;100747.05;1846607;76;21625;-88
2021/07/27 05:21:10;;;;;;;14.63;13.15;;;;;;;29.36;56.78;100746.41;1847206;77;21225;-88
2021/07/27 05:23:37;;;;;;;20.32;13.98;;;;;;;29.73;57.38;100734.88;1847224;77;21054;-88
2021/07/27 05:26:06;;;;;;;14.87;13.45;;;;;;;29.87;56.25;100732.81;1847129;77;21054;-88
2021/07/27 05:28:33;;;;;;;15.10;13.55;;;;;;;29.94;56.87;100729.66;1848113;77;21731;-87
2021/07/27 05:30:59;;;;;;;17.73;14.00;;;;;;;30.91;56.77;100722.69;1847259;77;20978;-87
2021/07/27 05:33:29;;;;;;;17.50;13.43;;;;;;;32.01;55.98;100734.44;1847305;77;21022;-88
2021/07/27 05:35:56;;;;;;;16.07;14.50;;;;;;;32.88;54.73;100743.23;1846251;77;21026;-88
2021/07/27 05:38:23;;;;;;;19.23;14.90;;;;;;;33.36;53.59;100738.09;1847330;77;21009;-87
2021/07/27 05:40:54;;;;;;;17.98;14.70;;;;;;;33.63;52.65;100731.63;1847456;77;21716;-87
2021/07/27 05:43:21;;;;;;;19.02;13.58;;;;;;;33.83;52.01;100742.00;1847102;77;20966;-86
2021/07/27 05:45:47;;;;;;;21.65;14.38;;;;;;;33.65;51.09;100740.11;1847276;76;21578;-85
2021/07/27 05:48:14;;;;;;;19.98;14.55;;;;;;;33.08;50.26;100740.49;1847349;77;20975;-85
2021/07/27 05:50:41;;;;;;;16.80;15.13;;;;;;;32.33;50.52;100741.00;1847316;77;21028;-86
2021/07/27 05:53:07;;;;;;;17.87;16.05;;;;;;;31.78;50.97;100736.80;1847237;77;21722;-86
2021/07/27 05:55:34;;;;;;;20.82;15.50;;;;;;;31.40;51.05;100733.74;1847086;77;21025;-86
2021/07/27 05:58:01;;;;;;;18.77;16.77;;;;;;;30.92;51.24;100729.02;1847257;77;20979;-87
2021/07/27 06:00:27;;;;;;;21.87;17.90;;;;;;;30.53;51.65;100727.19;1847414;77;21012;-87
2021/07/27 06:02:54;;;;;;;21.05;17.32;;;;;;;30.30;52.08;100724.44;1847435;77;21014;-87
2021/07/27 06:05:21;;;;;;;18.60;16.52;;;;;;;29.97;52.27;100725.89;1847321;77;21732;-86
2021/07/27 06:07:48;;;;;;;21.37;17.32;;;;;;;29.66;52.73;100721.66;1847200;77;21014;-87
2021/07/27 06:10:14;;;;;;;18.02;16.17;;;;;;;29.39;52.92;100725.88;1847469;77;20986;-87
2021/07/27 06:12:41;;;;;;;22.67;17.32;;;;;;;29.05;53.16;100722.23;1847339;77;20970;-86
2021/07/27 06:15:09;;;;;;;20.37;18.02;;;;;;;28.68;53.58;100714.65;1847437;77;21492;-86
2021/07/27 06:17:35;;;;;;;23.57;18.55;;;;;;;28.42;54.01;100717.32;1847336;77;21730;-87
2021/07/27 06:20:02;;;;;;;20.43;17.85;;;;;;;28.25;54.43;100714.97;1847342;77;21042;-87
2021/07/27 06:22:29;;;;;;;20.85;18.75;;;;;;;28.15;54.67;100715.48;1848054;77;21516;-87
2021/07/27 06:24:57;;;;;;;19.80;17.87;;;;;;;28.00;54.99;100717.11;1847447;77;21013;-86
2021/07/27 06:27:24;;;;;;;19.55;17.87;;;;;;;27.89;55.34;100722.58;1847405;77;21644;-86
2021/07/27 06:29:51;;;;;;;20.35;18.27;;;;;;;27.80;55.48;100717.56;1847630;77;21710;-86
2021/07/27 06:32:18;;;;;;;21.50;18.82;;;;;;;27.71;55.78;100717.52;1847377;77;20907;-87
2021/07/27 06:34:44;;;;;;;21.65;19.45;;;;;;;27.62;56.12;100704.42;1847332;77;21492;-87
2021/07/27 06:37:11;;;;;;;23.40;20.10;;;;;;;27.52;56.20;100699.92;1847295;77;21010;-87
2021/07/27 06:39:38;;;;;;;22.58;18.80;;;;;;;27.37;56.33;100701.09;1847387;77;20956;-87
2021/07/27 06:42:05;;;;;;;28.00;20.35;;;;;;;27.20;56.54;100701.37;1847458;77;21799;-87
2021/07/27 06:44:32;;;;;;;24.00;20.00;;;;;;;27.11;56.93;100707.19;1847104;77;20962;-87
2021/07/27 06:46:59;;;;;;;21.23;19.15;;;;;;;27.07;57.17;100710.49;1847615;77;20979;-87
2021/07/27 06:49:25;;;;;;;25.68;20.55;;;;;;;27.10;57.54;100717.12;1847471;77;20994;-87
2021/07/27 06:51:54;;;;;;;22.67;19.48;;;;;;;27.24;57.76;100713.80;1847343;77;21045;-87
2021/07/27 06:54:20;;;;;;;22.50;20.20;;;;;;;27.40;57.85;100719.88;1847224;77;22710;-87
2021/07/27 06:56:47;;;;;;;21.10;18.55;;;;;;;27.55;57.86;100729.98;1847185;77;20986;-87
2021/07/27 06:59:14;;;;;;;21.55;19.10;;;;;;;27.67;57.83;100728.08;1847361;77;20994;-87
2021/07/27 07:01:40;;;;;;;21.17;19.05;;;;;;;27.86;57.96;100725.86;1847310;77;21058;-87
2021/07/27 07:04:07;;;;;;;23.22;19.42;;;;;;;28.08;57.78;100723.02;1847450;77;21540;-87
2021/07/27 07:06:34;;;;;;;22.55;19.77;;;;;;;28.24;57.57;100720.45;1847286;77;21726;-87
2021/07/27 07:09:00;;;;;;;21.87;19.62;;;;;;;28.39;57.30;100718.33;1847305;77;20986;-87
2021/07/27 07:11:28;;;;;;;20.27;18.23;;;;;;;28.47;57.11;100726.97;1847518;77;20955;-86
2021/07/27 07:13:54;;;;;;;22.00;19.52;;;;;;;28.61;57.21;100730.84;1847569;77;22733;-87
2021/07/27 07:16:21;;;;;;;21.68;19.62;;;;;;;28.71;57.04;100738.02;1847659;77;21041;-87
2021/07/27 07:18:48;;;;;;;22.27;20.17;;;;;;;28.83;56.83;100738.27;1847353;77;21692;-87
2021/07/27 07:21:15;;;;;;;22.00;19.82;;;;;;;28.89;56.65;100733.88;1846916;77;20923;-88
2021/07/27 07:23:42;;;;;;;20.75;18.65;;;;;;;28.94;56.50;100732.75;1847270;77;21006;-88
2021/07/27 07:26:08;;;;;;;22.00;19.80;;;;;;;28.98;56.44;100737.95;1845985;77;21437;-87
2021/07/27 07:28:37;;;;;;;22.10;20.00;;;;;;;29.05;56.17;100740.71;1847314;77;21503;-87
2021/07/27 07:31:06;;;;;;;22.17;17.92;;;;;;;29.14;56.00;100737.17;1847380;77;21673;-87
2021/07/27 07:33:33;;;;;;;23.62;18.77;;;;;;;29.19;56.07;100727.84;1842578;77;21053;-87
2021/07/27 07:35:59;;;;;;;21.20;17.92;;;;;;;29.27;55.83;100722.88;1849826;77;21038;-86
2021/07/27 07:38:26;;;;;;;23.98;18.77;;;;;;;29.33;55.35;100715.37;1850212;77;21232;-87
2021/07/27 07:40:53;;;;;;;21.27;18.45;;;;;;;29.36;55.11;100718.80;1851733;77;21006;-88
2021/07/27 07:43:19;;;;;;;22.93;18.60;;;;;;;29.38;55.09;100711.95;1849939;77;21723;-87
2021/07/27 07:45:46;;;;;;;22.80;18.27;;;;;;;29.41;54.89;100707.69;1849713;77;20939;-88
2021/07/27 07:48:13;;;;;;;20.70;17.42;;;;;;;29.37;54.83;100712.89;1850085;77;21042;-88
2021/07/27 07:50:39;;;;;;;21.85;17.48;;;;;;;29.41;54.94;100719.89;1850089;77;21152;-86
2021/07/27 07:53:06;;;;;;;18.77;16.95;;;;;;;29.49;54.63;100723.09;1850088;77;21549;-85
2021/07/27 07:55:33;;;;;;;20.68;16.85;;;;;;;29.58;54.89;100720.33;1850262;77;21685;-86
2021/07/27 07:58:01;;;;;;;21.37;18.50;;;;;;;29.66;54.43;100719.45;1850057;77;20950;-87
2021/07/27 08:00:27;;;;;;;24.30;16.95;;;;;;;29.61;54.12;100717.45;1851018;77;21034;-88
2021/07/27 08:02:54;;;;;;;19.95;17.35;;;;;;;29.54;54.09;100726.39;1849859;77;21547;-85
2021/07/27 08:05:21;;;;;;;21.23;17.42;;;;;;;29.42;54.15;100726.59;1849921;77;21053;-85
2021/07/27 08:07:48;;;;;;;24.20;17.17;;;;;;;29.22;54.30;100736.28;1850182;77;21706;-87
2021/07/27 08:10:14;;;;;;;18.65;16.82;;;;;;;29.10;54.53;100732.36;1850006;77;21012;-86
2021/07/27 08:12:43;;;;;;;23.52;17.65;;;;;;;29.04;54.62;100728.14;1849936;77;20975;-86
2021/07/27 08:15:11;;;;;;;18.30;16.35;;;;;;;28.99;54.69;100731.56;1851795;77;20974;-88
2021/07/27 08:17:38;;;;;;;17.70;15.90;;;;;;;28.95;54.89;100728.62;1851588;77;20990;-88
2021/07/27 08:20:06;;;;;;;20.25;17.85;;;;;;;28.94;55.27;100732.75;1850019;77;21721;-88
2021/07/27 08:22:34;;;;;;;18.90;17.00;;;;;;;28.96;55.40;100728.13;1849930;77;21115;-86
2021/07/27 08:25:01;;;;;;;19.62;17.32;;;;;;;28.98;55.36;100735.70;1849973;77;21487;-86
2021/07/27 08:27:28;;;;;;;24.72;18.77;;;;;;;29.03;55.36;100733.62;1849974;77;21594;-86
2021/07/27 08:29:55;;;;;;;20.70;18.50;;;;;;;29.15;55.32;100747.94;1850035;77;20958;-85
2021/07/27 08:32:21;;;;;;;20.85;18.73;;;;;;;29.16;55.00;100742.90;1849863;77;21743;-85
2021/07/27 08:34:48;;;;;;;21.25;19.15;;;;;;;29.14;54.93;100746.17;1849484;77;21002;-85
2021/07/27 08:37:15;;;;;;;25.17;19.45;;;;;;;29.14;55.07;100755.66;1850290;77;21009;-88
2021/07/27 08:39:41;;;;;;;21.65;19.48;;;;;;;29.18;54.98;100757.73;1850045;77;20939;-87
2021/07/27 08:42:08;;;;;;;24.95;19.45;;;;;;;29.17;54.89;100764.09;1850047;77;20990;-87
2021/07/27 08:44:36;;;;;;;18.87;17.15;;;;;;;29.18;54.89;100751.82;1849537;77;21783;-87
2021/07/27 08:47:07;;;;;;;27.90;20.27;;;;;;;29.31;54.87;100756.12;1849811;77;20986;-87
2021/07/27 08:49:33;;;;;;;23.62;21.15;;;;;;;29.46;54.70;100759.84;1850000;77;21570;-88
2021/07/27 08:52:00;;;;;;;22.52;20.12;;;;;;;29.48;54.31;100754.34;1850091;77;21025;-88
2021/07/27 08:54:27;;;;;;;23.67;20.80;;;;;;;29.50;54.36;100749.23;1850059;77;21095;-88
2021/07/27 08:56:54;;;;;;;22.05;19.90;;;;;;;29.63;54.14;100746.23;1850211;77;21783;-88
2021/07/27 08:59:22;;;;;;;22.22;20.27;;;;;;;29.74;54.11;100742.97;1845763;77;22275;-88
2021/07/27 09:01:53;;;;;;;24.00;21.10;;;;;;;29.92;53.86;100744.26;1839579;77;21057;-87
2021/07/27 09:04:29;;;;;;;20.95;18.95;;;;;;;30.06;53.63;100740.78;1848224;77;21334;-88
2021/07/27 09:07:04;;;;;;;27.25;19.70;;;;;;;30.23;53.40;100746.12;1849587;77;21010;-88
2021/07/27 09:09:35;;;;;;;23.32;17.35;;;;;;;30.43;53.01;100743.65;1849876;77;21725;-88
2021/07/27 09:12:09;;;;;;;30.60;21.17;;;;;;;30.54;52.57;100733.48;1850160;77;20978;-88
2021/07/27 09:14:33;;;;;;;21.80;18.12;;;;;;;30.62;52.05;100736.16;1849941;76;21017;-88
2021/07/27 09:17:00;;;;;;;21.27;17.90;;;;;;;30.74;51.85;100728.24;1850279;77;20970;-88
2021/07/27 09:19:26;;;;;;;19.10;16.77;;;;;;;30.86;51.55;100729.34;1850238;77;20981;-88
2021/07/27 09:22:05;;;;;;;27.90;17.37;;;;;;;31.05;51.17;100728.66;1849398;77;21779;-88
2021/07/27 09:24:32;;;;;;;20.32;15.58;;;;;;;31.20;50.68;100735.00;1847436;77;21057;-88
2021/07/27 09:27:02;;;;;;;17.25;15.43;;;;;;;31.36;50.30;100728.11;1847495;77;21001;-87
2021/07/27 09:29:30;;;;;;;16.87;14.07;;;;;;;31.52;49.92;100728.94;1849525;77;20983;-88
2021/07/27 09:32:01;;;;;;;31.87;17.07;;;;;;;31.62;49.30;100718.83;1849836;77;21441;-85
2021/07/27 09:34:28;;;;;;;17.35;15.68;;;;;;;31.67;48.93;100720.78;1850087;77;21745;-86
2021/07/27 09:37:02;;;;;;;24.25;15.43;;;;;;;31.73;48.63;100714.44;1849619;77;21033;-86
2021/07/27 09:39:29;;;;;;;17.32;13.83;;;;;;;31.81;48.55;100718.52;1849951;77;21002;-86
2021/07/27 09:42:02;;;;;;;18.05;13.48;;;;;;;31.80;47.99;100724.46;1849970;77;21154;-86
2021/07/27 09:44:30;;;;;;;25.60;14.70;;;;;;;31.62;47.82;100719.70;1849613;76;21586;-87
2021/07/27 09:46:58;;;;;;;35.13;15.30;;;;;;;31.45;47.73;100728.03;1850063;77;21180;-86
2021/07/27 09:49:26;;;;;;;22.95;14.15;;;;;;;31.22;47.47;100727.63;1849880;77;21510;-86
2021/07/27 09:51:53;;;;;;;16.67;14.98;;;;;;;31.00;47.51;100722.13;1850082;77;20963;-87
2021/07/27 09:54:21;;;;;;;20.97;14.90;;;;;;;30.84;47.61;100719.95;1849885;77;20915;-86
2021/07/27 09:56:48;;;;;;;21.02;13.58;;;;;;;30.68;47.68;100720.47;1849911;77;21017;-86
2021/07/27 09:59:18;;;;;;;16.17;14.05;;;;;;;30.55;47.77;100723.90;1850020;77;22567;-86
2021/07/27 10:02:05;;;;;;;14.78;13.48;;;;;;;30.47;47.79;100715.83;1849783;77;21550;-86
2021/07/27 10:04:37;;;;;;;15.40;13.83;;;;;;;30.37;47.88;100719.55;1849615;77;21009;-86
2021/07/27 10:07:06;;;;;;;14.95;13.40;;;;;;;30.27;47.80;100716.46;1849949;77;20970;-87
2021/07/27 10:09:34;;;;;;;14.58;12.93;;;;;;;30.17;47.58;100717.48;1849439;77;21518;-86
2021/07/27 10:12:15;;;;;;;17.40;15.60;;;;;;;30.06;47.47;100721.78;1850018;77;21750;-86
2021/07/27 10:14:46;;;;;;;15.08;13.58;;;;;;;29.94;47.37;100718.81;1850085;77;21428;-86
2021/07/27 10:17:13;;;;;;;20.15;14.18;;;;;;;29.89;47.49;100715.47;1850016;77;20943;-87
2021/07/27 10:19:43;;;;;;;14.28;12.85;;;;;;;29.89;47.78;100719.53;1850044;77;20994;-86
2021/07/27 10:22:11;;;;;;;16.50;13.25;;;;;;;29.91;47.92;100718.97;1849903;77;21123;-86
2021/07/27 10:24:41;;;;;;;17.42;12.88;;;;;;;29.91;47.68;100724.89;1849919;77;22597;-86
2021/07/27 10:27:21;;;;;;;18.40;14.00;;;;;;;29.83;47.64;100726.19;1850019;77;21519;-86
2021/07/27 10:29:47;;;;;;;15.40;13.30;;;;;;;29.82;47.79;100727.63;1849966;77;21057;-84
2021/07/27 10:32:18;;;;;;;21.57;14.78;;;;;;;29.84;47.84;100725.70;1849831;77;20986;-84
2021/07/27 10:34:45;;;;;;;24.23;14.63;;;;;;;29.86;47.96;100721.05;1849975;77;21534;-84
2021/07/27 10:37:13;;;;;;;19.17;14.65;;;;;;;29.90;48.02;100723.12;1849910;77;21919;-84
2021/07/27 10:39:55;;;;;;;16.35;14.65;;;;;;;29.95;48.00;100718.31;1849715;76;20962;-84
2021/07/27 10:42:22;;;;;;;16.55;13.98;;;;;;;29.93;47.76;100715.69;1850029;77;20962;-84
2021/07/27 10:44:49;;;;;;;15.72;14.00;;;;;;;29.92;47.91;100715.77;1849712;77;21201;-83
2021/07/27 10:47:23;;;;;;;14.78;13.22;;;;;;;29.94;47.91;100716.55;1849964;77;20899;-83
2021/07/27 10:50:07;;;;;;;16.77;14.50;;;;;;;29.99;48.08;100711.74;1849693;77;21737;-83
2021/07/27 10:52:34;;;;;;;18.62;14.10;;;;;;;30.06;47.83;100716.36;1849465;77;21571;-86
2021/07/27 10:55:03;;;;;;;17.90;12.63;;;;;;;30.07;47.67;100708.13;1850129;77;21010;-86
2021/07/27 10:57:38;;;;;;;17.17;13.25;;;;;;;30.07;47.46;100714.02;1826488;77;20998;-86
2021/07/27 11:00:06;;;;;;;14.60;13.10;;;;;;;30.08;47.44;100715.78;1850006;77;21463;-86
2021/07/27 11:02:32;;;;;;;14.78;12.47;;;;;;;30.10;47.30;100711.14;1849887;76;22597;-86
2021/07/27 11:04:59;;;;;;;19.50;12.68;;;;;;;30.11;47.13;100712.41;1849897;77;20942;-87
2021/07/27 11:07:28;;;;;;;18.55;12.80;;;;;;;30.14;47.11;100706.79;1849713;77;21520;-86
2021/07/27 11:09:57;;;;;;;13.05;11.70;;;;;;;30.19;47.30;100710.12;1848724;76;21427;-87
2021/07/27 11:12:38;;;;;;;20.10;11.85;;;;;;;30.22;47.11;100710.45;1849477;77;21049;-86
2021/07/27 11:15:13;;;;;;;18.45;12.20;;;;;;;30.24;46.87;100705.31;1849883;77;21800;-86
2021/07/27 11:17:53;;;;;;;16.82;11.88;;;;;;;30.30;46.42;100708.15;1849854;77;21123;-87
2021/07/27 11:20:27;;;;;;;16.00;12.13;;;;;;;30.35;46.19;100714.69;1848964;77;20935;-86
2021/07/27 11:23:04;;;;;;;14.23;12.33;;;;;;;30.41;46.33;100710.28;1842677;77;21085;-87
2021/07/27 11:25:30;;;;;;;16.60;12.95;;;;;;;30.52;46.33;100710.52;1846430;77;21092;-87
2021/07/27 11:28:00;;;;;;;14.00;12.45;;;;;;;30.68;46.35;100721.34;1850184;77;21719;-87
2021/07/27 11:30:43;;;;;;;13.85;12.45;;;;;;;30.84;46.00;100710.89;1830678;77;21005;-86
2021/07/27 11:33:19;;;;;;;30.12;12.73;;;;;;;30.93;45.68;100716.70;1854117;77;21076;-86
2021/07/27 11:35:49;;;;;;;16.12;12.55;;;;;;;31.08;45.64;100718.08;1850744;76;21484;-87
2021/07/27 11:38:34;;;;;;;14.00;12.60;;;;;;;31.17;45.49;100712.94;1850251;77;21017;-88